sensor_id;sensor_type;location;lat;lon;timestamp;P1;durP1;ratioP1;P2;durP2;ratioP2
9228;SDS011;4649;42.644;23.284;2023-04-01T00:01:53;2.53;;;2.23;;
9228;SDS011;4649;42.644;23.284;2023-04-01T00:55:35;20.70;;;5.30;;
9228;SDS011;4649;42.644;23.284;2023-04-01T01:09:20;4.03;;;3.50;;
9228;SDS011;4649;42.644;23.284;2023-04-01T01:21:38;5.33;;;3.57;;
9228;SDS011;4649;42.644;23.284;2023-04-01T02:02:27;3.37;;;3.07;;
9228;SDS011;4649;42.644;23.284;2023-04-01T02:09:11;4.13;;;2.73;;
9228;SDS011;4649;42.644;23.284;2023-04-01T02:36:55;3.80;;;3.37;;
9228;SDS011;4649;42.644;23.284;2023-04-01T02:40:18;6.13;;;2.70;;
9228;SDS011;4649;42.644;23.284;2023-04-01T02:43:04;5.13;;;2.93;;
9228;SDS011;4649;42.644;23.284;2023-04-01T02:46:06;3.83;;;3.23;;
9228;SDS011;4649;42.644;23.284;2023-04-01T02:48:58;6.33;;;3.10;;
9228;SDS011;4649;42.644;23.284;2023-04-01T03:28:57;5.50;;;3.53;;
9228;SDS011;4649;42.644;23.284;2023-04-01T03:34:53;6.70;;;2.60;;
9228;SDS011;4649;42.644;23.284;2023-04-01T03:38:01;8.07;;;2.63;;
9228;SDS011;4649;42.644;23.284;2023-04-01T03:41:17;4.20;;;2.33;;
9228;SDS011;4649;42.644;23.284;2023-04-01T03:44:13;3.03;;;2.73;;
9228;SDS011;4649;42.644;23.284;2023-04-01T03:47:35;4.80;;;2.93;;
9228;SDS011;4649;42.644;23.284;2023-04-01T03:54:07;4.23;;;2.83;;
9228;SDS011;4649;42.644;23.284;2023-04-01T03:56:49;6.30;;;2.60;;
9228;SDS011;4649;42.644;23.284;2023-04-01T03:59:31;3.83;;;2.17;;
9228;SDS011;4649;42.644;23.284;2023-04-01T04:02:16;4.47;;;2.60;;
9228;SDS011;4649;42.644;23.284;2023-04-01T05:37:48;7.47;;;4.10;;
9228;SDS011;4649;42.644;23.284;2023-04-01T05:40:15;5.90;;;3.97;;
9228;SDS011;4649;42.644;23.284;2023-04-01T05:42:43;6.43;;;4.50;;
9228;SDS011;4649;42.644;23.284;2023-04-01T05:45:10;8.77;;;4.30;;
9228;SDS011;4649;42.644;23.284;2023-04-01T05:47:36;4.67;;;3.90;;
9228;SDS011;4649;42.644;23.284;2023-04-01T05:50:03;9.80;;;4.60;;
9228;SDS011;4649;42.644;23.284;2023-04-01T05:52:31;8.77;;;4.27;;
9228;SDS011;4649;42.644;23.284;2023-04-01T05:54:59;4.07;;;3.67;;
9228;SDS011;4649;42.644;23.284;2023-04-01T05:57:26;5.73;;;4.60;;
9228;SDS011;4649;42.644;23.284;2023-04-01T05:59:53;7.87;;;4.30;;
9228;SDS011;4649;42.644;23.284;2023-04-01T06:02:20;6.50;;;3.90;;
9228;SDS011;4649;42.644;23.284;2023-04-01T06:04:47;7.50;;;4.07;;
9228;SDS011;4649;42.644;23.284;2023-04-01T06:07:14;5.00;;;4.60;;
9228;SDS011;4649;42.644;23.284;2023-04-01T06:09:42;9.50;;;5.03;;
9228;SDS011;4649;42.644;23.284;2023-04-01T06:12:28;7.67;;;5.03;;
9228;SDS011;4649;42.644;23.284;2023-04-01T06:15:11;6.10;;;4.83;;
9228;SDS011;4649;42.644;23.284;2023-04-01T06:17:49;7.07;;;4.77;;
9228;SDS011;4649;42.644;23.284;2023-04-01T06:20:29;9.23;;;4.20;;
9228;SDS011;4649;42.644;23.284;2023-04-01T06:23:15;9.07;;;4.97;;
9228;SDS011;4649;42.644;23.284;2023-04-01T06:26:02;4.70;;;4.30;;
9228;SDS011;4649;42.644;23.284;2023-04-01T06:28:52;12.23;;;4.53;;
9228;SDS011;4649;42.644;23.284;2023-04-01T06:32:00;5.37;;;3.90;;
9228;SDS011;4649;42.644;23.284;2023-04-01T06:38:01;4.87;;;3.47;;
9228;SDS011;4649;42.644;23.284;2023-04-01T06:40:42;5.63;;;4.30;;
9228;SDS011;4649;42.644;23.284;2023-04-01T06:43:37;4.50;;;4.10;;
9228;SDS011;4649;42.644;23.284;2023-04-01T06:46:16;4.83;;;3.70;;
9228;SDS011;4649;42.644;23.284;2023-04-01T06:48:54;12.73;;;3.83;;
9228;SDS011;4649;42.644;23.284;2023-04-01T06:51:31;3.70;;;3.30;;
9228;SDS011;4649;42.644;23.284;2023-04-01T06:54:06;3.73;;;3.30;;
9228;SDS011;4649;42.644;23.284;2023-04-01T06:56:38;6.73;;;3.47;;
9228;SDS011;4649;42.644;23.284;2023-04-01T06:59:10;4.50;;;3.50;;
9228;SDS011;4649;42.644;23.284;2023-04-01T07:01:42;4.67;;;3.10;;
9228;SDS011;4649;42.644;23.284;2023-04-01T07:04:14;5.23;;;3.57;;
9228;SDS011;4649;42.644;23.284;2023-04-01T07:06:47;6.50;;;3.00;;
9228;SDS011;4649;42.644;23.284;2023-04-01T07:09:18;3.77;;;3.10;;
9228;SDS011;4649;42.644;23.284;2023-04-01T07:11:48;4.80;;;3.23;;
9228;SDS011;4649;42.644;23.284;2023-04-01T07:14:17;9.07;;;4.50;;
9228;SDS011;4649;42.644;23.284;2023-04-01T07:16:51;13.67;;;3.90;;
9228;SDS011;4649;42.644;23.284;2023-04-01T07:19:24;6.80;;;4.20;;
9228;SDS011;4649;42.644;23.284;2023-04-01T07:21:56;5.70;;;3.53;;
9228;SDS011;4649;42.644;23.284;2023-04-01T07:24:29;8.70;;;3.87;;
9228;SDS011;4649;42.644;23.284;2023-04-01T07:27:00;4.40;;;4.00;;
9228;SDS011;4649;42.644;23.284;2023-04-01T07:29:27;7.40;;;3.73;;
9228;SDS011;4649;42.644;23.284;2023-04-01T07:32:05;4.13;;;3.83;;
9228;SDS011;4649;42.644;23.284;2023-04-01T07:34:39;8.00;;;4.67;;
9228;SDS011;4649;42.644;23.284;2023-04-01T07:37:17;5.43;;;3.57;;
9228;SDS011;4649;42.644;23.284;2023-04-01T07:39:51;7.73;;;4.50;;
9228;SDS011;4649;42.644;23.284;2023-04-01T07:42:29;10.07;;;4.50;;
9228;SDS011;4649;42.644;23.284;2023-04-01T07:45:06;6.00;;;4.13;;
9228;SDS011;4649;42.644;23.284;2023-04-01T07:47:48;6.80;;;4.13;;
9228;SDS011;4649;42.644;23.284;2023-04-01T07:50:26;8.47;;;4.57;;
9228;SDS011;4649;42.644;23.284;2023-04-01T07:52:58;7.13;;;4.00;;
9228;SDS011;4649;42.644;23.284;2023-04-01T07:55:36;4.73;;;3.60;;
9228;SDS011;4649;42.644;23.284;2023-04-01T07:58:10;4.03;;;3.50;;
9228;SDS011;4649;42.644;23.284;2023-04-01T08:00:47;8.67;;;4.63;;
9228;SDS011;4649;42.644;23.284;2023-04-01T08:03:25;13.93;;;4.67;;
9228;SDS011;4649;42.644;23.284;2023-04-01T08:06:00;11.17;;;4.87;;
9228;SDS011;4649;42.644;23.284;2023-04-01T08:08:38;5.30;;;4.07;;
9228;SDS011;4649;42.644;23.284;2023-04-01T08:11:15;9.80;;;4.97;;
9228;SDS011;4649;42.644;23.284;2023-04-01T08:13:52;6.30;;;4.53;;
9228;SDS011;4649;42.644;23.284;2023-04-01T08:16:27;7.50;;;4.20;;
9228;SDS011;4649;42.644;23.284;2023-04-01T08:19:04;6.33;;;4.53;;
9228;SDS011;4649;42.644;23.284;2023-04-01T08:21:43;8.37;;;4.73;;
9228;SDS011;4649;42.644;23.284;2023-04-01T08:24:16;5.70;;;5.00;;
9228;SDS011;4649;42.644;23.284;2023-04-01T08:26:48;7.37;;;4.53;;
9228;SDS011;4649;42.644;23.284;2023-04-01T08:29:20;11.23;;;4.70;;
9228;SDS011;4649;42.644;23.284;2023-04-01T08:31:51;9.83;;;3.87;;
9228;SDS011;4649;42.644;23.284;2023-04-01T08:34:25;6.00;;;4.40;;
9228;SDS011;4649;42.644;23.284;2023-04-01T08:36:57;9.37;;;4.70;;
9228;SDS011;4649;42.644;23.284;2023-04-01T08:39:28;7.73;;;4.07;;
9228;SDS011;4649;42.644;23.284;2023-04-01T08:42:09;17.07;;;4.20;;
9228;SDS011;4649;42.644;23.284;2023-04-01T08:45:11;7.53;;;3.57;;
9228;SDS011;4649;42.644;23.284;2023-04-01T08:51:18;7.57;;;3.80;;
9228;SDS011;4649;42.644;23.284;2023-04-01T08:54:07;5.07;;;3.60;;
9228;SDS011;4649;42.644;23.284;2023-04-01T08:56:47;4.07;;;3.30;;
9228;SDS011;4649;42.644;23.284;2023-04-01T08:59:27;9.80;;;3.60;;
9228;SDS011;4649;42.644;23.284;2023-04-01T09:05:17;5.43;;;3.57;;
9228;SDS011;4649;42.644;23.284;2023-04-01T09:08:00;4.77;;;3.33;;
9228;SDS011;4649;42.644;23.284;2023-04-01T09:10:46;7.50;;;3.57;;
9228;SDS011;4649;42.644;23.284;2023-04-01T09:13:32;4.20;;;3.80;;
9228;SDS011;4649;42.644;23.284;2023-04-01T09:16:19;8.37;;;2.90;;
9228;SDS011;4649;42.644;23.284;2023-04-01T09:22:09;3.07;;;2.87;;
9228;SDS011;4649;42.644;23.284;2023-04-01T09:25:08;7.00;;;3.10;;
9228;SDS011;4649;42.644;23.284;2023-04-01T09:27:53;6.87;;;3.10;;
9228;SDS011;4649;42.644;23.284;2023-04-01T09:30:43;10.53;;;3.07;;
9228;SDS011;4649;42.644;23.284;2023-04-01T09:33:30;4.77;;;2.90;;
9228;SDS011;4649;42.644;23.284;2023-04-01T09:36:18;4.07;;;3.00;;
9228;SDS011;4649;42.644;23.284;2023-04-01T09:38:56;7.67;;;3.00;;
9228;SDS011;4649;42.644;23.284;2023-04-01T09:41:35;7.70;;;2.73;;
9228;SDS011;4649;42.644;23.284;2023-04-01T09:44:13;7.00;;;2.90;;
9228;SDS011;4649;42.644;23.284;2023-04-01T09:46:52;3.47;;;2.67;;
9228;SDS011;4649;42.644;23.284;2023-04-01T09:52:27;5.93;;;2.60;;
9228;SDS011;4649;42.644;23.284;2023-04-01T09:55:05;6.33;;;2.30;;
9228;SDS011;4649;42.644;23.284;2023-04-01T10:00:56;6.43;;;1.90;;
9228;SDS011;4649;42.644;23.284;2023-04-01T10:13:00;5.53;;;2.17;;
9228;SDS011;4649;42.644;23.284;2023-04-01T10:16:10;2.63;;;2.27;;
9228;SDS011;4649;42.644;23.284;2023-04-01T10:19:12;12.17;;;2.50;;
9228;SDS011;4649;42.644;23.284;2023-04-01T10:21:59;9.00;;;1.83;;
9228;SDS011;4649;42.644;23.284;2023-04-01T10:33:58;1.80;;;1.70;;
9228;SDS011;4649;42.644;23.284;2023-04-01T10:36:43;5.83;;;2.10;;
9228;SDS011;4649;42.644;23.284;2023-04-01T10:52:05;7.50;;;2.20;;
9228;SDS011;4649;42.644;23.284;2023-04-01T10:54:51;6.17;;;2.00;;
9228;SDS011;4649;42.644;23.284;2023-04-01T11:00:46;3.07;;;2.10;;
9228;SDS011;4649;42.644;23.284;2023-04-01T11:07:22;5.27;;;2.33;;
9228;SDS011;4649;42.644;23.284;2023-04-01T11:16:40;5.50;;;1.80;;
9228;SDS011;4649;42.644;23.284;2023-04-01T11:26:08;5.53;;;2.20;;
9228;SDS011;4649;42.644;23.284;2023-04-01T11:28:45;13.37;;;3.17;;
9228;SDS011;4649;42.644;23.284;2023-04-01T11:31:29;1.60;;;1.47;;
9228;SDS011;4649;42.644;23.284;2023-04-01T11:34:14;2.10;;;1.70;;
9228;SDS011;4649;42.644;23.284;2023-04-01T11:36:52;3.33;;;2.27;;
9228;SDS011;4649;42.644;23.284;2023-04-01T11:39:33;4.73;;;2.60;;
9228;SDS011;4649;42.644;23.284;2023-04-01T11:42:14;5.90;;;2.77;;
9228;SDS011;4649;42.644;23.284;2023-04-01T11:44:51;4.30;;;2.80;;
9228;SDS011;4649;42.644;23.284;2023-04-01T16:24:59;3.10;;;2.90;;
9228;SDS011;4649;42.644;23.284;2023-04-01T16:28:03;2.10;;;2.00;;
9228;SDS011;4649;42.644;23.284;2023-04-01T16:30:57;4.10;;;3.80;;
9228;SDS011;4649;42.644;23.284;2023-04-01T16:33:44;8.00;;;7.33;;
9228;SDS011;4649;42.644;23.284;2023-04-01T16:36:37;10.37;;;9.30;;
9228;SDS011;4649;42.644;23.284;2023-04-01T16:42:34;1.13;;;1.13;;
9228;SDS011;4649;42.644;23.284;2023-04-01T16:45:53;2.07;;;1.97;;
9228;SDS011;4649;42.644;23.284;2023-04-01T16:48:49;1.07;;;1.07;;
9228;SDS011;4649;42.644;23.284;2023-04-01T16:51:33;1.53;;;1.43;;
9228;SDS011;4649;42.644;23.284;2023-04-01T16:59:52;0.60;;;0.60;;
9228;SDS011;4649;42.644;23.284;2023-04-01T17:02:24;0.50;;;0.50;;
9228;SDS011;4649;42.644;23.284;2023-04-01T17:05:03;0.70;;;0.70;;
9228;SDS011;4649;42.644;23.284;2023-04-01T17:07:43;0.80;;;0.80;;
9228;SDS011;4649;42.644;23.284;2023-04-01T17:13:38;0.80;;;0.80;;
9228;SDS011;4649;42.644;23.284;2023-04-01T17:16:41;0.63;;;0.63;;
9228;SDS011;4649;42.644;23.284;2023-04-01T17:19:28;0.70;;;0.70;;
9228;SDS011;4649;42.644;23.284;2023-04-01T17:22:13;0.83;;;0.83;;
9228;SDS011;4649;42.644;23.284;2023-04-01T17:24:59;0.50;;;0.50;;
9228;SDS011;4649;42.644;23.284;2023-04-01T17:27:38;1.07;;;1.07;;
9228;SDS011;4649;42.644;23.284;2023-04-01T17:33:06;1.00;;;1.00;;
9228;SDS011;4649;42.644;23.284;2023-04-01T17:35:47;1.07;;;1.07;;
9228;SDS011;4649;42.644;23.284;2023-04-01T17:38:29;1.10;;;1.10;;
9228;SDS011;4649;42.644;23.284;2023-04-01T17:41:08;1.10;;;1.10;;
9228;SDS011;4649;42.644;23.284;2023-04-01T17:43:40;1.03;;;1.03;;
9228;SDS011;4649;42.644;23.284;2023-04-01T17:46:27;1.00;;;1.00;;
9228;SDS011;4649;42.644;23.284;2023-04-01T17:49:03;1.30;;;1.20;;
9228;SDS011;4649;42.644;23.284;2023-04-01T17:51:48;1.53;;;1.50;;
9228;SDS011;4649;42.644;23.284;2023-04-01T17:54:23;1.00;;;1.00;;
9228;SDS011;4649;42.644;23.284;2023-04-01T17:57:00;0.73;;;0.73;;
9228;SDS011;4649;42.644;23.284;2023-04-01T17:59:35;0.50;;;0.50;;
9228;SDS011;4649;42.644;23.284;2023-04-01T18:02:15;0.73;;;0.73;;
9228;SDS011;4649;42.644;23.284;2023-04-01T18:08:00;0.80;;;0.80;;
9228;SDS011;4649;42.644;23.284;2023-04-01T18:10:41;1.07;;;0.80;;
9228;SDS011;4649;42.644;23.284;2023-04-01T18:13:22;0.43;;;0.43;;
9228;SDS011;4649;42.644;23.284;2023-04-01T18:16:10;0.40;;;0.40;;
9228;SDS011;4649;42.644;23.284;2023-04-01T18:18:52;0.80;;;0.80;;
9228;SDS011;4649;42.644;23.284;2023-04-01T18:21:40;0.83;;;0.83;;
9228;SDS011;4649;42.644;23.284;2023-04-01T18:29:40;0.90;;;0.90;;
9228;SDS011;4649;42.644;23.284;2023-04-01T18:52:20;0.63;;;0.60;;
9228;SDS011;4649;42.644;23.284;2023-04-01T18:55:39;0.93;;;0.93;;
9228;SDS011;4649;42.644;23.284;2023-04-01T18:58:14;1.83;;;0.77;;
9228;SDS011;4649;42.644;23.284;2023-04-01T19:00:48;0.70;;;0.70;;
9228;SDS011;4649;42.644;23.284;2023-04-01T19:09:47;0.70;;;0.70;;
9228;SDS011;4649;42.644;23.284;2023-04-01T19:12:49;1.30;;;1.20;;
9228;SDS011;4649;42.644;23.284;2023-04-01T19:15:58;1.10;;;1.10;;
9228;SDS011;4649;42.644;23.284;2023-04-01T19:19:27;0.93;;;0.93;;
9228;SDS011;4649;42.644;23.284;2023-04-01T19:34:59;1.30;;;1.20;;
9228;SDS011;4649;42.644;23.284;2023-04-01T20:20:18;0.90;;;0.90;;
9228;SDS011;4649;42.644;23.284;2023-04-01T20:23:21;1.00;;;1.00;;
9228;SDS011;4649;42.644;23.284;2023-04-01T20:26:41;1.73;;;1.10;;
9228;SDS011;4649;42.644;23.284;2023-04-01T20:37:48;0.80;;;0.80;;
9228;SDS011;4649;42.644;23.284;2023-04-01T20:40:35;0.60;;;0.60;;
9228;SDS011;4649;42.644;23.284;2023-04-01T20:46:40;0.77;;;0.77;;
9228;SDS011;4649;42.644;23.284;2023-04-01T20:52:32;1.87;;;0.80;;
9228;SDS011;4649;42.644;23.284;2023-04-01T20:58:32;0.50;;;0.50;;
9228;SDS011;4649;42.644;23.284;2023-04-01T21:01:11;0.73;;;0.73;;
9228;SDS011;4649;42.644;23.284;2023-04-01T21:04:04;1.07;;;1.07;;
9228;SDS011;4649;42.644;23.284;2023-04-01T21:07:06;0.60;;;0.60;;
9228;SDS011;4649;42.644;23.284;2023-04-01T21:09:55;0.60;;;0.60;;
9228;SDS011;4649;42.644;23.284;2023-04-01T21:12:54;0.90;;;0.90;;
9228;SDS011;4649;42.644;23.284;2023-04-01T21:19:19;0.67;;;0.67;;
9228;SDS011;4649;42.644;23.284;2023-04-01T21:25:53;0.90;;;0.90;;
9228;SDS011;4649;42.644;23.284;2023-04-01T21:29:11;1.37;;;1.00;;
9228;SDS011;4649;42.644;23.284;2023-04-01T21:32:13;0.80;;;0.80;;
9228;SDS011;4649;42.644;23.284;2023-04-01T21:35:18;0.77;;;0.77;;
9228;SDS011;4649;42.644;23.284;2023-04-01T21:37:58;0.50;;;0.50;;
9228;SDS011;4649;42.644;23.284;2023-04-01T21:41:25;0.90;;;0.90;;
9228;SDS011;4649;42.644;23.284;2023-04-01T21:44:26;0.60;;;0.60;;
9228;SDS011;4649;42.644;23.284;2023-04-01T22:46:35;0.93;;;0.47;;
9228;SDS011;4649;42.644;23.284;2023-04-01T22:49:46;1.93;;;0.90;;
9228;SDS011;4649;42.644;23.284;2023-04-01T22:53:17;0.80;;;0.80;;
9228;SDS011;4649;42.644;23.284;2023-04-01T22:56:07;0.77;;;0.50;;
9228;SDS011;4649;42.644;23.284;2023-04-01T22:58:50;0.57;;;0.57;;
9228;SDS011;4649;42.644;23.284;2023-04-01T23:16:54;0.83;;;0.83;;
9228;SDS011;4649;42.644;23.284;2023-04-01T23:19:44;0.30;;;0.30;;
9228;SDS011;4649;42.644;23.284;2023-04-01T23:22:34;0.37;;;0.37;;
9228;SDS011;4649;42.644;23.284;2023-04-01T23:25:50;0.50;;;0.50;;
9228;SDS011;4649;42.644;23.284;2023-04-01T23:43:05;0.90;;;0.77;;
9228;SDS011;4649;42.644;23.284;2023-04-01T23:46:05;0.90;;;0.90;;
9228;SDS011;4649;42.644;23.284;2023-04-01T23:51:50;0.70;;;0.70;;
9228;SDS011;4649;42.644;23.284;2023-04-01T23:54:31;1.13;;;0.60;;
9228;SDS011;4649;42.644;23.284;2023-04-01T23:57:23;0.53;;;0.53;;
